Time;durP1;ratioP1;P1;durP2;ratioP2;P2;SDS_P1;SDS_P2;PMS_P1;PMS_P2;Temp;Humidity;BMP_temperature;BMP_pressure;BME280_temperature;BME280_humidity;BME280_pressure;Samples;Min_cycle;Max_cycle;Signal;HPM_P1;HPM_P2
2023/06/05 00:01:37;;;;;;;6.97;2.25;;;12.50;99.90;;;;;;5071029;28;20036;-72
2023/06/05 00:04:03;;;;;;;3.72;2.10;;;12.50;99.90;;;;;;5070269;28;20033;-72
2023/06/05 00:06:29;;;;;;;6.15;2.42;;;12.40;99.90;;;;;;5052730;28;20040;-71
2023/06/05 00:08:54;;;;;;;6.10;2.45;;;12.40;99.90;;;;;;5071776;28;20481;-71
2023/06/05 00:11:20;;;;;;;6.30;2.53;;;12.40;99.90;;;;;;5070687;28;20040;-72
2023/06/05 00:13:45;;;;;;;5.57;2.33;;;12.30;99.90;;;;;;5071889;28;20044;-72
2023/06/05 00:16:11;;;;;;;6.40;2.17;;;12.30;99.90;;;;;;5070916;28;20032;-72
2023/06/05 00:18:37;;;;;;;13.50;3.05;;;12.30;99.90;;;;;;5071172;28;20020;-72
2023/06/05 00:21:03;;;;;;;7.85;2.30;;;12.20;99.90;;;;;;5053781;28;20036;-72
2023/06/05 00:23:29;;;;;;;5.07;2.67;;;12.20;99.90;;;;;;5068200;28;20123;-72
2023/06/05 00:25:55;;;;;;;4.25;2.72;;;12.20;99.90;;;;;;5071619;28;20112;-71
2023/06/05 00:28:20;;;;;;;6.38;2.85;;;12.10;99.90;;;;;;5070974;28;20119;-71
2023/06/05 00:30:46;;;;;;;7.88;2.60;;;12.10;99.90;;;;;;5068517;28;20025;-72
2023/06/05 00:33:11;;;;;;;5.88;2.67;;;12.00;99.90;;;;;;5064894;28;20031;-73
2023/06/05 00:35:38;;;;;;;7.97;3.67;;;12.00;99.90;;;;;;5071215;28;20028;-71
2023/06/05 00:38:06;;;;;;;7.65;3.28;;;12.00;99.90;;;;;;5071490;28;20072;-71
2023/06/05 00:40:32;;;;;;;4.50;2.75;;;11.90;99.90;;;;;;5070232;28;20121;-72
2023/06/05 00:42:58;;;;;;;5.20;2.25;;;11.90;99.90;;;;;;5069091;28;20187;-72
2023/06/05 00:45:23;;;;;;;8.77;3.17;;;11.80;99.90;;;;;;5069960;28;20036;-71
2023/06/05 00:47:49;;;;;;;4.88;2.45;;;11.80;99.90;;;;;;5070846;28;20047;-72
2023/06/05 00:50:17;;;;;;;6.05;2.53;;;11.70;99.90;;;;;;5070452;28;20020;-72
2023/06/05 00:52:43;;;;;;;6.55;3.38;;;11.70;99.90;;;;;;5053337;28;20391;-72
2023/06/05 00:55:11;;;;;;;7.70;2.55;;;11.70;99.90;;;;;;5067201;28;20329;-71
2023/06/05 00:57:38;;;;;;;6.47;2.58;;;11.70;99.90;;;;;;5064657;28;20028;-72
2023/06/05 01:00:07;;;;;;;5.43;3.00;;;11.60;99.90;;;;;;5072569;28;20017;-71
2023/06/05 01:02:34;;;;;;;6.53;3.85;;;11.60;99.90;;;;;;5052160;28;20481;-72
2023/06/05 01:04:59;;;;;;;7.65;2.65;;;11.60;99.90;;;;;;5068580;28;20036;-71
2023/06/05 01:07:27;;;;;;;6.28;3.30;;;11.50;99.90;;;;;;5067651;28;20017;-71
2023/06/05 01:09:54;;;;;;;8.68;3.28;;;11.50;99.90;;;;;;5071195;28;20020;-72
2023/06/05 01:13:03;;;;;;;8.13;3.20;;;11.40;99.90;;;;;;5069810;28;20103;-71
2023/06/05 01:15:33;;;;;;;6.88;3.65;;;11.40;99.90;;;;;;5053169;28;20044;-71
2023/06/05 01:18:00;;;;;;;7.47;3.53;;;11.30;99.90;;;;;;5070241;28;20024;-71
2023/06/05 01:20:33;;;;;;;5.43;3.10;;;11.30;99.90;;;;;;5070330;28;20558;-71
2023/06/05 01:22:58;;;;;;;9.00;4.10;;;11.20;99.90;;;;;;5050745;28;20549;-72
2023/06/05 01:25:25;;;;;;;10.52;4.18;;;11.20;99.90;;;;;;5069133;28;20107;-72
2023/06/05 01:28:08;;;;;;;11.02;5.10;;;11.20;99.90;;;;;;5069966;28;20385;-71
2023/06/05 01:30:41;;;;;;;5.95;3.92;;;11.20;99.90;;;;;;5057709;28;20381;-71
2023/06/05 01:33:17;;;;;;;7.10;3.80;;;11.20;99.90;;;;;;5064766;28;20499;-71
2023/06/05 01:35:45;;;;;;;7.15;3.58;;;11.10;99.90;;;;;;5067351;28;20036;-72
2023/06/05 01:38:11;;;;;;;7.97;4.03;;;11.10;99.90;;;;;;5068495;28;20127;-72
2023/06/05 01:40:38;;;;;;;5.53;3.97;;;11.00;99.90;;;;;;5070194;28;20644;-72
2023/06/05 01:43:06;;;;;;;8.88;4.57;;;11.00;99.90;;;;;;5068379;28;20692;-71
2023/06/05 01:45:33;;;;;;;9.93;4.30;;;11.00;99.90;;;;;;5068006;28;20073;-71
2023/06/05 01:47:58;;;;;;;10.40;4.88;;;11.00;99.90;;;;;;5071445;28;20426;-71
2023/06/05 01:50:25;;;;;;;8.75;5.13;;;10.90;99.90;;;;;;5066110;28;20025;-72
2023/06/05 01:52:52;;;;;;;7.53;4.95;;;10.90;99.90;;;;;;5050198;28;20043;-71
2023/06/05 01:55:26;;;;;;;6.03;3.95;;;10.90;99.90;;;;;;5070747;28;20017;-72
2023/06/05 01:57:51;;;;;;;11.57;4.28;;;10.90;99.90;;;;;;5062842;28;20016;-72
2023/06/05 02:00:17;;;;;;;10.38;4.75;;;10.80;99.90;;;;;;5068416;28;20031;-72
2023/06/05 02:02:43;;;;;;;7.65;4.30;;;10.80;99.90;;;;;;5065223;28;20108;-72
2023/06/05 02:05:10;;;;;;;11.68;4.85;;;10.80;99.90;;;;;;5052468;28;20048;-71
2023/06/05 02:07:39;;;;;;;8.45;5.32;;;10.80;99.90;;;;;;5068067;28;20456;-72
2023/06/05 02:10:06;;;;;;;9.52;4.90;;;10.70;99.90;;;;;;5055803;28;20021;-71
2023/06/05 02:12:32;;;;;;;9.57;5.10;;;10.70;99.90;;;;;;5067789;28;20063;-71
2023/06/05 02:14:59;;;;;;;10.35;5.28;;;10.70;99.90;;;;;;5063931;28;20141;-71
2023/06/05 02:17:25;;;;;;;8.13;4.75;;;10.60;99.90;;;;;;5063121;28;20031;-71
2023/06/05 02:19:51;;;;;;;8.80;5.13;;;10.60;99.90;;;;;;5070006;28;20021;-71
2023/06/05 02:22:17;;;;;;;8.07;5.43;;;10.60;99.90;;;;;;5068597;28;20586;-72
2023/06/05 02:24:43;;;;;;;10.82;5.10;;;10.60;99.90;;;;;;5069145;28;20035;-71
2023/06/05 02:27:10;;;;;;;7.40;5.15;;;10.50;99.90;;;;;;5067414;28;20476;-71
2023/06/05 02:29:36;;;;;;;11.63;5.78;;;10.50;99.90;;;;;;5050122;28;20055;-71
2023/06/05 02:32:03;;;;;;;10.05;5.38;;;10.50;99.90;;;;;;5066605;28;20026;-71
2023/06/05 02:34:28;;;;;;;15.38;5.72;;;10.50;99.90;;;;;;5068027;28;20111;-72
2023/06/05 02:36:55;;;;;;;8.27;5.78;;;10.40;99.90;;;;;;5068666;28;20087;-71
2023/06/05 02:39:21;;;;;;;10.70;6.43;;;10.40;99.90;;;;;;5068061;28;20055;-71
2023/06/05 02:41:47;;;;;;;11.07;5.85;;;10.40;99.90;;;;;;5067355;28;20021;-71
2023/06/05 02:44:12;;;;;;;10.02;5.57;;;10.40;99.90;;;;;;5068084;28;20100;-71
2023/06/05 02:46:38;;;;;;;10.25;5.28;;;10.30;99.90;;;;;;5072196;28;20036;-72
2023/06/05 02:49:03;;;;;;;9.23;6.45;;;10.30;99.90;;;;;;5073552;28;20028;-71
2023/06/05 02:51:29;;;;;;;10.48;6.72;;;10.20;99.90;;;;;;5071658;28;20028;-71
2023/06/05 02:53:55;;;;;;;10.77;6.35;;;10.20;99.90;;;;;;5071956;28;20496;-71
2023/06/05 02:56:21;;;;;;;12.13;6.85;;;10.20;99.90;;;;;;5074623;28;20025;-72
2023/06/05 02:58:47;;;;;;;11.90;6.45;;;10.20;99.90;;;;;;5072403;28;20083;-71
2023/06/05 03:01:12;;;;;;;12.90;6.95;;;10.10;99.90;;;;;;5073637;28;20491;-72
2023/06/05 03:03:38;;;;;;;14.30;7.30;;;10.10;99.90;;;;;;5072634;28;20044;-71
2023/06/05 03:06:04;;;;;;;12.65;7.00;;;10.10;99.90;;;;;;5069233;28;20484;-71
2023/06/05 03:08:31;;;;;;;11.43;6.97;;;10.10;99.90;;;;;;5069222;28;20039;-72
2023/06/05 03:10:57;;;;;;;15.18;7.40;;;10.00;99.90;;;;;;5069494;28;20056;-71
2023/06/05 03:13:23;;;;;;;13.57;7.20;;;10.00;99.90;;;;;;5066002;28;20469;-71
2023/06/05 03:15:48;;;;;;;14.55;7.70;;;10.00;99.90;;;;;;5074605;28;20470;-71
2023/06/05 03:18:14;;;;;;;14.40;8.05;;;10.00;99.90;;;;;;5072446;28;20075;-72
2023/06/05 03:20:39;;;;;;;14.20;7.38;;;10.00;99.90;;;;;;5072812;28;20040;-71
2023/06/05 03:23:05;;;;;;;12.88;7.63;;;10.00;99.90;;;;;;5050647;28;20037;-71
2023/06/05 03:25:30;;;;;;;12.27;7.63;;;9.90;99.90;;;;;;5074142;28;20396;-72
2023/06/05 03:27:56;;;;;;;13.05;8.18;;;9.90;99.90;;;;;;5072173;28;20491;-71
2023/06/05 03:30:22;;;;;;;11.70;7.60;;;9.90;99.90;;;;;;5073211;28;20032;-71
2023/06/05 03:32:47;;;;;;;12.27;7.70;;;9.90;99.90;;;;;;5070582;28;20043;-71
2023/06/05 03:35:13;;;;;;;13.52;7.45;;;9.90;99.90;;;;;;5063516;28;20025;-72
2023/06/05 03:37:39;;;;;;;12.43;7.60;;;9.90;99.90;;;;;;5071414;28;20067;-71
2023/06/05 03:40:05;;;;;;;13.80;8.27;;;9.90;99.90;;;;;;5071699;28;20025;-71
2023/06/05 03:42:31;;;;;;;14.00;7.57;;;9.80;99.90;;;;;;5069681;28;20037;-71
2023/06/05 03:44:56;;;;;;;12.05;7.50;;;9.90;99.90;;;;;;5072383;28;20036;-72
2023/06/05 03:47:23;;;;;;;12.80;8.25;;;9.90;99.90;;;;;;5063509;28;20447;-71
2023/06/05 03:49:50;;;;;;;15.43;8.57;;;9.90;99.90;;;;;;5066300;28;20384;-71
2023/06/05 03:52:15;;;;;;;15.00;8.80;;;9.80;99.90;;;;;;5069138;28;20021;-71
2023/06/05 03:54:43;;;;;;;13.05;7.90;;;9.80;99.90;;;;;;5071822;28;20431;-71
2023/06/05 03:57:12;;;;;;;15.18;8.80;;;9.90;99.90;;;;;;5071721;28;20380;-71
2023/06/05 03:59:37;;;;;;;13.90;8.45;;;9.80;99.90;;;;;;5071693;28;20051;-71
2023/06/05 04:02:04;;;;;;;14.70;8.30;;;9.90;99.90;;;;;;5060063;28;20484;-71
2023/06/05 04:04:30;;;;;;;14.32;8.10;;;9.90;99.90;;;;;;5071568;28;20025;-71
2023/06/05 04:06:55;;;;;;;15.25;8.40;;;9.90;99.90;;;;;;5072554;28;20020;-71
2023/06/05 04:09:21;;;;;;;13.48;9.98;;;9.90;99.90;;;;;;5066854;28;20051;-71
2023/06/05 04:11:47;;;;;;;12.93;8.27;;;9.90;99.90;;;;;;5053245;28;20161;-71
2023/06/05 04:14:13;;;;;;;13.77;8.45;;;9.90;99.90;;;;;;5068523;28;20431;-71
2023/06/05 04:16:40;;;;;;;15.77;9.15;;;9.90;99.90;;;;;;5072334;28;20021;-71
2023/06/05 04:19:06;;;;;;;17.67;8.77;;;10.00;99.90;;;;;;5071475;28;20044;-71
2023/06/05 04:21:37;;;;;;;16.17;8.65;;;10.00;99.90;;;;;;5066694;28;20028;-71
2023/06/05 04:24:06;;;;;;;14.18;8.93;;;10.00;99.90;;;;;;5070126;28;20538;-71
2023/06/05 04:26:33;;;;;;;14.35;8.65;;;10.00;99.90;;;;;;5071307;28;20069;-71
2023/06/05 04:28:58;;;;;;;12.82;9.10;;;10.10;99.90;;;;;;5071820;28;20028;-71
2023/06/05 04:31:25;;;;;;;12.27;8.20;;;10.10;99.90;;;;;;5067339;28;20036;-71
2023/06/05 04:33:50;;;;;;;14.25;9.40;;;10.20;99.90;;;;;;5069584;28;20543;-72
2023/06/05 04:36:18;;;;;;;16.67;8.85;;;10.20;99.90;;;;;;5050817;28;20151;-71
2023/06/05 04:38:45;;;;;;;15.23;9.00;;;10.20;99.90;;;;;;5058306;28;20045;-71
2023/06/05 04:41:11;;;;;;;16.35;9.52;;;10.30;99.90;;;;;;5069544;28;20108;-71
2023/06/05 04:43:36;;;;;;;15.70;9.27;;;10.40;99.90;;;;;;5067102;28;20153;-71
2023/06/05 04:46:02;;;;;;;17.42;9.55;;;10.40;99.90;;;;;;5070921;28;20021;-71
2023/06/05 04:48:28;;;;;;;17.02;9.02;;;10.40;99.90;;;;;;5069713;28;20036;-71
2023/06/05 04:50:55;;;;;;;14.15;9.00;;;10.50;99.90;;;;;;5071103;28;20025;-71
2023/06/05 04:53:21;;;;;;;19.15;9.00;;;10.60;99.90;;;;;;5045560;28;20025;-71
2023/06/05 04:55:48;;;;;;;13.25;8.55;;;10.80;99.90;;;;;;5067040;28;20032;-71
2023/06/05 04:58:15;;;;;;;13.57;8.05;;;11.10;99.90;;;;;;5052402;28;20133;-71
2023/06/05 05:00:44;;;;;;;11.85;7.93;;;11.30;99.90;;;;;;5063737;28;20027;-70
2023/06/05 05:03:13;;;;;;;11.80;7.57;;;11.60;99.90;;;;;;5060969;28;20496;-71
2023/06/05 05:05:39;;;;;;;10.98;7.72;;;11.90;99.90;;;;;;5070592;28;20021;-71
2023/06/05 05:08:05;;;;;;;11.68;8.25;;;12.10;99.90;;;;;;5067049;28;20035;-70
2023/06/05 05:10:31;;;;;;;12.20;7.30;;;12.30;99.90;;;;;;5053209;28;20029;-70
2023/06/05 05:12:56;;;;;;;14.38;7.18;;;12.50;99.90;;;;;;5070643;28;20032;-70
2023/06/05 05:15:26;;;;;;;18.05;7.95;;;12.70;99.90;;;;;;5068581;28;20483;-70
2023/06/05 05:17:52;;;;;;;12.80;7.45;;;12.90;99.90;;;;;;5054721;28;20031;-71
2023/06/05 05:20:19;;;;;;;14.07;7.63;;;13.00;99.90;;;;;;5052111;28;20103;-70
2023/06/05 05:22:45;;;;;;;10.73;7.32;;;13.10;99.90;;;;;;5068263;28;20498;-70
2023/06/05 05:25:10;;;;;;;13.75;7.43;;;13.20;99.90;;;;;;5068069;28;20025;-70
2023/06/05 05:27:36;;;;;;;13.40;7.22;;;13.40;99.90;;;;;;5061459;28;20039;-71
2023/06/05 05:30:02;;;;;;;12.45;7.10;;;13.40;99.90;;;;;;5071839;28;20030;-70
2023/06/05 05:32:28;;;;;;;14.43;6.28;;;13.50;99.90;;;;;;5068698;28;20017;-71
2023/06/05 05:34:53;;;;;;;10.20;6.00;;;13.60;99.90;;;;;;5066394;28;20211;-71
2023/06/05 05:37:19;;;;;;;11.90;6.75;;;13.70;99.90;;;;;;5070065;28;20400;-70
2023/06/05 05:39:45;;;;;;;9.73;6.15;;;13.80;99.90;;;;;;5068612;28;20028;-70
2023/06/05 05:42:10;;;;;;;11.55;7.03;;;13.80;99.90;;;;;;5068629;28;20424;-70
2023/06/05 05:44:36;;;;;;;12.25;6.85;;;13.90;99.90;;;;;;5062717;28;20032;-70
2023/06/05 05:47:01;;;;;;;11.75;6.80;;;13.90;99.90;;;;;;5059677;28;20051;-70
2023/06/05 05:49:27;;;;;;;13.02;7.05;;;13.80;99.90;;;;;;5048935;28;20539;-71
2023/06/05 05:51:52;;;;;;;13.38;6.97;;;13.70;99.90;;;;;;5061174;28;20013;-70
2023/06/05 05:54:18;;;;;;;13.93;8.20;;;13.70;99.90;;;;;;5068259;28;20545;-70
2023/06/05 05:56:44;;;;;;;13.82;8.05;;;13.60;99.90;;;;;;5051731;28;20020;-70
2023/06/05 05:59:09;;;;;;;12.52;7.07;;;13.50;99.90;;;;;;5049766;28;20051;-70
2023/06/05 06:01:35;;;;;;;13.40;7.10;;;13.50;99.90;;;;;;5067600;28;20062;-70
2023/06/05 06:04:02;;;;;;;11.52;6.93;;;13.50;99.90;;;;;;5069756;28;20376;-71
2023/06/05 06:06:28;;;;;;;14.20;7.05;;;13.50;99.90;;;;;;5066500;28;20012;-71
2023/06/05 06:08:54;;;;;;;13.40;7.07;;;13.40;99.90;;;;;;5070935;28;20483;-71
2023/06/05 06:11:19;;;;;;;10.57;6.90;;;13.40;99.90;;;;;;5060257;28;20085;-71
2023/06/05 06:13:45;;;;;;;11.25;6.30;;;13.50;99.90;;;;;;5058817;28;20028;-71
2023/06/05 06:16:10;;;;;;;11.43;6.55;;;13.60;99.90;;;;;;5055181;28;20462;-71
2023/06/05 06:18:36;;;;;;;10.15;6.07;;;13.60;99.90;;;;;;5066276;28;20016;-71
2023/06/05 06:21:02;;;;;;;10.43;6.07;;;13.70;99.90;;;;;;5066291;28;20112;-71
2023/06/05 06:23:29;;;;;;;11.40;6.45;;;13.80;99.90;;;;;;5045414;28;20043;-71
2023/06/05 06:25:55;;;;;;;9.65;6.05;;;13.90;99.90;;;;;;5066834;28;20464;-71
2023/06/05 06:28:20;;;;;;;12.20;6.28;;;13.90;99.90;;;;;;5066117;28;20036;-71
2023/06/05 06:30:46;;;;;;;13.80;6.57;;;14.00;99.90;;;;;;5060863;28;20029;-71
2023/06/05 06:33:12;;;;;;;9.77;5.63;;;14.00;99.90;;;;;;5061319;28;20086;-71
2023/06/05 06:35:38;;;;;;;9.65;5.32;;;14.10;99.90;;;;;;5059344;28;20402;-70
2023/06/05 06:38:03;;;;;;;7.75;5.40;;;14.10;99.90;;;;;;5061645;28;20506;-71
2023/06/05 06:40:29;;;;;;;12.68;6.55;;;14.20;99.90;;;;;;5061913;28;20106;-71
2023/06/05 06:42:55;;;;;;;9.25;5.95;;;14.20;99.90;;;;;;5061547;28;20129;-71
2023/06/05 06:45:21;;;;;;;9.55;6.45;;;14.20;99.90;;;;;;5059873;28;20075;-71
2023/06/05 06:47:46;;;;;;;12.15;6.47;;;14.20;99.90;;;;;;5059832;28;20029;-71
2023/06/05 06:50:13;;;;;;;9.02;6.10;;;14.30;99.90;;;;;;5064109;28;20556;-71
2023/06/05 06:52:39;;;;;;;8.77;5.60;;;14.40;99.90;;;;;;5062386;28;20040;-71
2023/06/05 06:55:05;;;;;;;10.93;5.57;;;14.50;99.90;;;;;;5063227;28;20107;-71
2023/06/05 06:57:31;;;;;;;12.85;4.85;;;14.60;99.90;;;;;;5058936;28;20028;-71
2023/06/05 06:59:57;;;;;;;11.95;5.25;;;14.70;99.90;;;;;;5059276;28;20355;-71
2023/06/05 07:02:25;;;;;;;7.95;4.70;;;14.70;99.90;;;;;;5046784;28;20028;-70
2023/06/05 07:04:53;;;;;;;9.52;4.75;;;14.80;99.90;;;;;;5060401;28;20115;-71
2023/06/05 07:07:21;;;;;;;9.40;4.70;;;14.80;99.90;;;;;;5062853;28;20055;-70
2023/06/05 07:09:48;;;;;;;10.00;4.85;;;14.90;99.90;;;;;;5051479;28;20476;-71
2023/06/05 07:12:16;;;;;;;12.07;4.80;;;15.00;99.90;;;;;;5063315;28;20044;-71
2023/06/05 07:14:42;;;;;;;9.38;4.82;;;15.00;99.90;;;;;;5067633;28;20017;-71
2023/06/05 07:17:08;;;;;;;8.73;4.03;;;15.10;99.90;;;;;;5048956;28;20025;-70
2023/06/05 07:19:36;;;;;;;6.47;3.97;;;15.10;99.90;;;;;;5044147;28;20024;-71
2023/06/05 07:22:15;;;;;;;7.13;4.22;;;15.10;99.90;;;;;;5044478;28;20036;-71
2023/06/05 07:24:42;;;;;;;15.90;6.28;;;15.20;99.90;;;;;;5060601;28;20056;-70
2023/06/05 07:27:08;;;;;;;8.55;3.67;;;15.30;99.90;;;;;;5063444;28;20107;-71
2023/06/05 07:29:33;;;;;;;10.00;4.40;;;15.30;99.90;;;;;;5047171;28;20021;-71
2023/06/05 07:31:59;;;;;;;6.70;3.60;;;15.40;99.90;;;;;;5043220;28;20028;-71
2023/06/05 07:34:28;;;;;;;7.97;4.05;;;15.50;99.90;;;;;;5062166;28;20025;-71
2023/06/05 07:36:55;;;;;;;8.55;3.85;;;15.60;99.90;;;;;;5064611;28;20047;-70
2023/06/05 07:39:22;;;;;;;8.05;3.50;;;15.70;99.90;;;;;;5067114;28;20474;-70
2023/06/05 07:41:47;;;;;;;6.80;3.47;;;15.80;99.90;;;;;;5063631;28;21708;-70
2023/06/05 07:44:15;;;;;;;8.27;3.63;;;15.90;99.90;;;;;;5062408;28;20101;-70
2023/06/05 07:46:42;;;;;;;9.73;4.80;;;16.00;99.90;;;;;;5047980;28;20052;-69
2023/06/05 07:49:09;;;;;;;7.20;2.92;;;16.10;99.90;;;;;;5061317;28;20130;-70
2023/06/05 07:51:36;;;;;;;5.93;3.97;;;16.20;99.90;;;;;;5061994;28;20025;-70
2023/06/05 07:54:06;;;;;;;9.00;3.90;;;16.20;99.90;;;;;;5066491;28;20056;-70
2023/06/05 07:56:33;;;;;;;9.00;3.72;;;16.20;99.90;;;;;;5061726;28;20021;-71
2023/06/05 07:58:59;;;;;;;11.93;3.70;;;16.30;99.90;;;;;;5062847;28;20078;-71
2023/06/05 08:01:25;;;;;;;7.70;3.53;;;16.40;99.90;;;;;;5063825;28;20111;-70
2023/06/05 08:03:51;;;;;;;9.77;3.90;;;16.50;99.90;;;;;;5061954;28;20033;-71
2023/06/05 08:06:16;;;;;;;5.80;3.28;;;16.50;99.90;;;;;;5067013;28;20383;-72
2023/06/05 08:08:42;;;;;;;6.47;3.47;;;16.60;99.90;;;;;;5071884;28;20094;-70
2023/06/05 08:11:09;;;;;;;5.97;3.25;;;16.60;99.90;;;;;;5071846;28;20028;-70
2023/06/05 08:13:34;;;;;;;8.60;4.05;;;16.70;99.90;;;;;;5067769;28;20017;-71
2023/06/05 08:16:00;;;;;;;6.78;3.95;;;16.70;99.90;;;;;;5066455;28;20028;-72
2023/06/05 08:18:25;;;;;;;7.85;3.42;;;16.80;99.90;;;;;;5060798;28;20036;-71
2023/06/05 08:20:51;;;;;;;5.85;3.45;;;16.90;99.90;;;;;;5062188;28;20017;-71
2023/06/05 08:23:16;;;;;;;5.95;3.63;;;17.00;99.90;;;;;;5056522;28;20519;-71
2023/06/05 08:25:43;;;;;;;6.70;2.83;;;17.10;99.90;;;;;;5062050;28;20073;-71
2023/06/05 08:28:08;;;;;;;6.60;3.42;;;17.20;99.90;;;;;;5062636;28;20039;-72
2023/06/05 08:30:34;;;;;;;5.47;2.88;;;17.40;99.90;;;;;;5063579;28;20021;-71
2023/06/05 08:33:00;;;;;;;5.13;2.60;;;17.50;99.90;;;;;;5064249;28;20733;-71
2023/06/05 08:35:25;;;;;;;8.93;3.47;;;17.60;99.90;;;;;;5063395;28;20063;-71
2023/06/05 08:37:51;;;;;;;5.82;2.95;;;17.70;99.90;;;;;;5064220;28;20044;-71
2023/06/05 08:40:19;;;;;;;8.57;3.85;;;17.70;99.90;;;;;;5060870;28;20098;-71
2023/06/05 08:42:45;;;;;;;6.80;3.15;;;17.70;99.90;;;;;;5063287;28;20044;-70
2023/06/05 08:45:11;;;;;;;6.60;2.88;;;17.60;99.90;;;;;;5061723;28;20074;-70
2023/06/05 08:47:38;;;;;;;8.77;3.65;;;17.80;99.90;;;;;;5064299;28;20107;-70
2023/06/05 08:50:06;;;;;;;4.75;3.00;;;17.80;99.90;;;;;;5062865;28;20032;-71
2023/06/05 08:52:38;;;;;;;5.45;2.65;;;17.90;99.90;;;;;;5062567;28;20082;-70
2023/06/05 08:55:04;;;;;;;5.75;3.25;;;18.00;99.90;;;;;;5062533;28;20078;-70
2023/06/05 08:57:40;;;;;;;6.20;3.78;;;18.10;99.90;;;;;;5060643;28;20028;-73
2023/06/05 09:00:14;;;;;;;4.38;2.83;;;18.20;99.90;;;;;;5065858;28;20016;-70
2023/06/05 09:02:46;;;;;;;9.07;3.47;;;18.30;99.90;;;;;;5061315;28;20458;-70
2023/06/05 09:05:12;;;;;;;7.00;3.70;;;18.40;99.90;;;;;;5062192;28;20023;-70
2023/06/05 09:07:38;;;;;;;7.35;3.67;;;18.40;99.90;;;;;;5065057;28;20021;-70
2023/06/05 09:10:05;;;;;;;6.97;3.05;;;18.40;99.90;;;;;;5070605;28;20032;-70
2023/06/05 09:12:31;;;;;;;6.68;3.05;;;18.50;99.90;;;;;;5068940;28;20112;-71
2023/06/05 09:14:56;;;;;;;7.10;3.08;;;18.60;99.90;;;;;;5069115;28;20108;-71
2023/06/05 09:17:22;;;;;;;6.95;3.45;;;18.70;99.90;;;;;;5071146;28;20056;-71
2023/06/05 09:19:48;;;;;;;6.85;2.90;;;18.80;99.90;;;;;;5070939;28;20020;-71
2023/06/05 09:22:16;;;;;;;11.55;3.90;;;18.90;99.90;;;;;;5067109;28;20033;-70
2023/06/05 09:24:42;;;;;;;9.52;3.38;;;19.10;99.90;;;;;;5068249;28;20072;-70
2023/06/05 09:27:10;;;;;;;8.23;3.13;;;19.20;99.90;;;;;;5069390;28;20028;-70
2023/06/05 09:29:40;;;;;;;7.95;3.03;;;19.20;99.90;;;;;;5068667;28;20052;-70
2023/06/05 09:32:08;;;;;;;4.80;2.70;;;19.30;99.90;;;;;;5069411;28;20024;-70
2023/06/05 09:34:39;;;;;;;6.85;3.42;;;19.40;99.90;;;;;;5068222;28;20040;-70
2023/06/05 09:37:07;;;;;;;11.20;3.17;;;19.50;99.90;;;;;;5069971;28;20546;-70
2023/06/05 09:39:35;;;;;;;6.03;2.33;;;19.50;99.40;;;;;;5070738;28;20028;-70
2023/06/05 09:42:01;;;;;;;8.23;2.88;;;19.60;99.70;;;;;;5069620;28;20036;-70
2023/06/05 09:44:28;;;;;;;4.97;2.85;;;19.80;99.40;;;;;;5069101;28;20029;-71
2023/06/05 09:47:05;;;;;;;6.72;2.63;;;19.80;98.70;;;;;;5066949;28;20021;-70
2023/06/05 09:49:48;;;;;;;5.13;2.67;;;19.90;98.60;;;;;;5068687;28;20059;-70
2023/06/05 09:52:14;;;;;;;7.40;2.90;;;20.00;98.00;;;;;;5068625;28;20070;-71
2023/06/05 09:54:44;;;;;;;6.80;2.78;;;20.00;98.20;;;;;;5061666;28;20063;-70
2023/06/05 09:57:11;;;;;;;7.15;2.30;;;20.00;98.10;;;;;;5067194;28;20462;-70
2023/06/05 10:00:07;;;;;;;5.38;3.40;;;20.20;97.80;;;;;;5062707;28;20515;-71
2023/06/05 10:02:34;;;;;;;4.80;2.30;;;20.20;96.70;;;;;;5047100;28;20127;-70
2023/06/05 10:05:04;;;;;;;5.88;2.30;;;20.20;96.80;;;;;;5066255;28;20024;-70
2023/06/05 10:07:35;;;;;;;6.75;3.13;;;20.30;96.70;;;;;;5067347;28;20184;-70
2023/06/05 10:10:01;;;;;;;8.48;3.60;;;20.40;96.30;;;;;;5066612;28;20028;-70
2023/06/05 10:12:30;;;;;;;5.88;2.42;;;20.50;96.30;;;;;;5064814;28;20027;-70
2023/06/05 10:14:57;;;;;;;8.20;2.55;;;20.60;96.40;;;;;;5067589;28;20074;-70
2023/06/05 10:17:23;;;;;;;5.95;2.50;;;20.80;96.80;;;;;;5063309;28;20027;-71
2023/06/05 10:19:50;;;;;;;7.72;2.70;;;20.80;96.00;;;;;;5067296;28;20111;-70
2023/06/05 10:22:18;;;;;;;5.90;2.65;;;20.90;95.50;;;;;;5065424;28;20040;-71
2023/06/05 10:24:51;;;;;;;5.78;3.28;;;21.00;94.90;;;;;;5064974;28;20445;-70
2023/06/05 10:27:38;;;;;;;6.03;2.90;;;21.00;94.40;;;;;;5068478;28;20016;-70
2023/06/05 10:30:29;;;;;;;5.88;2.53;;;21.10;94.30;;;;;;5060125;28;20029;-71
2023/06/05 10:33:19;;;;;;;9.13;2.58;;;21.10;94.00;;;;;;5060485;28;20538;-70
2023/06/05 10:36:03;;;;;;;6.60;2.78;;;21.10;93.90;;;;;;5066397;28;20115;-70
2023/06/05 10:38:31;;;;;;;7.30;2.55;;;21.30;93.50;;;;;;5069838;28;20516;-71
2023/06/05 10:40:59;;;;;;;6.55;3.15;;;21.30;93.40;;;;;;5069911;28;20111;-70
2023/06/05 10:43:30;;;;;;;7.20;3.17;;;21.40;93.00;;;;;;5069635;28;20044;-70
2023/06/05 10:46:00;;;;;;;7.23;3.20;;;21.50;92.10;;;;;;5067000;28;20384;-70
2023/06/05 10:49:03;;;;;;;6.65;2.63;;;21.50;92.00;;;;;;5067003;28;20442;-70
2023/06/05 10:51:37;;;;;;;5.75;2.83;;;21.50;91.70;;;;;;5067891;28;20059;-70
2023/06/05 10:54:06;;;;;;;10.57;3.00;;;21.50;91.50;;;;;;5067247;28;21329;-70
2023/06/05 10:57:06;;;;;;;6.43;2.60;;;21.60;91.40;;;;;;5046478;28;20025;-71
2023/06/05 10:59:34;;;;;;;5.57;2.50;;;21.70;91.50;;;;;;5065943;28;20103;-70
2023/06/05 11:02:14;;;;;;;7.70;2.22;;;21.80;91.00;;;;;;5061786;28;20029;-70
2023/06/05 11:04:46;;;;;;;5.95;2.00;;;21.90;91.00;;;;;;5068516;28;20496;-70
2023/06/05 11:07:23;;;;;;;4.00;2.28;;;22.10;90.60;;;;;;5070976;28;20133;-71
2023/06/05 11:10:06;;;;;;;6.00;2.67;;;22.20;90.10;;;;;;5071919;28;20036;-71
2023/06/05 11:12:35;;;;;;;4.85;2.35;;;22.20;89.60;;;;;;5073366;28;20032;-71
2023/06/05 11:15:02;;;;;;;4.80;2.08;;;22.20;90.10;;;;;;5073293;28;20094;-71
2023/06/05 11:17:33;;;;;;;4.55;1.90;;;22.30;89.10;;;;;;5066817;28;20032;-71
2023/06/05 11:20:00;;;;;;;4.85;2.17;;;22.50;87.90;;;;;;5067525;28;20117;-70
2023/06/05 11:22:26;;;;;;;5.18;1.60;;;22.60;87.00;;;;;;5071947;28;20102;-70
2023/06/05 11:25:13;;;;;;;8.32;2.20;;;22.50;84.80;;;;;;5071368;28;20020;-71
2023/06/05 11:27:42;;;;;;;4.97;1.90;;;22.40;84.20;;;;;;5069397;28;20032;-72
2023/06/05 11:30:15;;;;;;;5.07;1.55;;;22.40;83.30;;;;;;5069640;28;20100;-70
2023/06/05 11:32:41;;;;;;;3.08;1.63;;;22.30;82.90;;;;;;5054458;28;20138;-71
2023/06/05 11:35:11;;;;;;;6.85;2.00;;;22.40;82.80;;;;;;5065476;28;20051;-70
2023/06/05 11:37:39;;;;;;;2.85;1.48;;;22.50;82.90;;;;;;5071439;28;20067;-70
2023/06/05 11:40:09;;;;;;;3.88;1.67;;;22.60;82.40;;;;;;5064959;28;20064;-71
2023/06/05 11:42:35;;;;;;;4.78;1.58;;;22.70;81.80;;;;;;5062612;28;20044;-71
2023/06/05 11:45:02;;;;;;;4.32;1.70;;;22.90;82.40;;;;;;5064524;28;20023;-71
2023/06/05 11:47:29;;;;;;;3.65;1.88;;;23.10;81.10;;;;;;5064775;28;20048;-71
2023/06/05 11:50:16;;;;;;;3.78;1.73;;;23.10;79.80;;;;;;5064352;28;20028;-70
2023/06/05 11:52:42;;;;;;;3.40;1.17;;;23.10;78.80;;;;;;5044148;28;20111;-71
2023/06/05 11:55:16;;;;;;;4.65;2.00;;;23.20;78.90;;;;;;5063095;28;20099;-70
2023/06/05 11:57:43;;;;;;;4.57;2.35;;;23.30;77.80;;;;;;5063049;28;20519;-71
2023/06/05 12:00:10;;;;;;;5.53;1.80;;;23.20;77.80;;;;;;5064120;28;20028;-71
2023/06/05 12:02:37;;;;;;;3.20;1.15;;;23.20;78.90;;;;;;5064417;28;20503;-71
2023/06/05 12:05:05;;;;;;;5.35;1.27;;;23.50;80.10;;;;;;5065165;28;20108;-71
2023/06/05 12:07:36;;;;;;;5.15;1.70;;;23.70;79.10;;;;;;5063643;28;20083;-71
2023/06/05 12:10:03;;;;;;;5.28;1.33;;;24.00;77.70;;;;;;5062672;28;20020;-69
2023/06/05 12:12:29;;;;;;;4.70;1.33;;;24.10;76.40;;;;;;5064267;28;20054;-69
2023/06/05 12:14:55;;;;;;;5.25;1.23;;;24.10;74.80;;;;;;5062159;28;20021;-69
2023/06/05 12:17:22;;;;;;;6.85;1.65;;;24.00;74.40;;;;;;5061820;28;20021;-71
2023/06/05 12:19:54;;;;;;;3.70;1.27;;;24.00;74.20;;;;;;5062403;28;20043;-71
2023/06/05 12:22:20;;;;;;;3.97;1.00;;;24.10;74.60;;;;;;5060518;28;20117;-71
2023/06/05 12:24:46;;;;;;;3.58;1.10;;;24.20;73.80;;;;;;5045854;28;20396;-71
2023/06/05 12:27:13;;;;;;;2.28;1.05;;;24.10;71.40;;;;;;5061542;28;20028;-71
2023/06/05 12:29:54;;;;;;;4.47;1.20;;;24.00;70.40;;;;;;5047603;28;20055;-71
2023/06/05 12:32:24;;;;;;;2.75;1.38;;;24.00;70.10;;;;;;5046373;28;20549;-72
2023/06/05 12:34:51;;;;;;;7.63;1.10;;;24.00;69.00;;;;;;5061572;28;20035;-72
2023/06/05 12:37:31;;;;;;;3.53;1.10;;;23.90;68.40;;;;;;5062862;28;20527;-72
2023/06/05 12:39:58;;;;;;;3.15;0.73;;;24.00;68.00;;;;;;5063467;28;20027;-72
2023/06/05 12:42:24;;;;;;;2.92;1.02;;;24.10;67.50;;;;;;5060705;28;20043;-72
2023/06/05 12:44:50;;;;;;;3.22;1.08;;;24.10;66.50;;;;;;5059842;28;20028;-71
2023/06/05 12:47:16;;;;;;;4.90;1.90;;;24.20;65.70;;;;;;5066289;28;20029;-71